sensor_id;sensor_type;location;lat;lon;timestamp;pressure;altitude;pressure_sealevel;temperature;humidity
69842;BME280;57138;51.326;-0.068;2023-02-20T00:01:55;100850.69;;;5.59;90.43
69842;BME280;57138;51.326;-0.068;2023-02-20T00:04:21;100840.91;;;5.50;89.96
69842;BME280;57138;51.326;-0.068;2023-02-20T00:06:47;100835.19;;;5.45;90.11
69842;BME280;57138;51.326;-0.068;2023-02-20T00:09:12;100824.47;;;5.36;90.10
69842;BME280;57138;51.326;-0.068;2023-02-20T00:11:38;100845.81;;;5.45;90.48
69842;BME280;57138;51.326;-0.068;2023-02-20T00:14:04;100842.19;;;5.46;90.77
69842;BME280;57138;51.326;-0.068;2023-02-20T00:16:32;100840.09;;;5.39;90.67
69842;BME280;57138;51.326;-0.068;2023-02-20T00:18:58;100828.34;;;5.32;90.48
69842;BME280;57138;51.326;-0.068;2023-02-20T00:21:23;100829.31;;;5.31;90.66
69842;BME280;57138;51.326;-0.068;2023-02-20T00:23:50;100841.34;;;5.35;90.64
69842;BME280;57138;51.326;-0.068;2023-02-20T00:26:18;100825.44;;;5.26;90.46
69842;BME280;57138;51.326;-0.068;2023-02-20T00:28:44;100822.91;;;5.24;90.72
69842;BME280;57138;51.326;-0.068;2023-02-20T00:31:13;100819.84;;;5.19;90.77
69842;BME280;57138;51.326;-0.068;2023-02-20T00:33:38;100818.03;;;5.19;90.75
69842;BME280;57138;51.326;-0.068;2023-02-20T00:36:04;100820.41;;;5.22;90.84
69842;BME280;57138;51.326;-0.068;2023-02-20T00:38:30;100794.19;;;5.10;91.23
69842;BME280;57138;51.326;-0.068;2023-02-20T00:40:55;100807.84;;;5.15;91.11
69842;BME280;57138;51.326;-0.068;2023-02-20T00:43:24;100808.13;;;5.12;91.55
69842;BME280;57138;51.326;-0.068;2023-02-20T00:45:49;100787.47;;;5.06;91.59
69842;BME280;57138;51.326;-0.068;2023-02-20T00:48:15;100796.38;;;5.04;91.65
69842;BME280;57138;51.326;-0.068;2023-02-20T00:50:40;100805.06;;;5.07;91.69
69842;BME280;57138;51.326;-0.068;2023-02-20T00:53:06;100801.41;;;5.08;91.63
69842;BME280;57138;51.326;-0.068;2023-02-20T00:55:31;100793.03;;;5.02;92.09
69842;BME280;57138;51.326;-0.068;2023-02-20T00:57:59;100800.31;;;5.00;91.74
69842;BME280;57138;51.326;-0.068;2023-02-20T01:00:28;100811.59;;;5.02;92.50
69842;BME280;57138;51.326;-0.068;2023-02-20T01:02:54;100776.00;;;4.85;91.89
69842;BME280;57138;51.326;-0.068;2023-02-20T01:05:20;100794.16;;;5.00;92.16
69842;BME280;57138;51.326;-0.068;2023-02-20T01:07:46;100778.25;;;4.90;92.20
69842;BME280;57138;51.326;-0.068;2023-02-20T01:10:12;100783.25;;;4.93;92.46
69842;BME280;57138;51.326;-0.068;2023-02-20T01:12:38;100785.78;;;4.95;92.37
69842;BME280;57138;51.326;-0.068;2023-02-20T01:15:07;100781.59;;;4.92;91.82
69842;BME280;57138;51.326;-0.068;2023-02-20T01:17:35;100774.03;;;4.88;91.88
69842;BME280;57138;51.326;-0.068;2023-02-20T01:20:01;100752.72;;;4.79;92.48
69842;BME280;57138;51.326;-0.068;2023-02-20T01:22:27;100759.84;;;4.79;91.83
69842;BME280;57138;51.326;-0.068;2023-02-20T01:24:55;100768.19;;;4.84;92.37
69842;BME280;57138;51.326;-0.068;2023-02-20T01:27:20;100773.22;;;4.87;92.63
69842;BME280;57138;51.326;-0.068;2023-02-20T01:29:47;100776.84;;;4.86;92.88
69842;BME280;57138;51.326;-0.068;2023-02-20T01:32:13;100765.41;;;4.85;92.89
69842;BME280;57138;51.326;-0.068;2023-02-20T01:34:39;100774.31;;;4.84;92.76
69842;BME280;57138;51.326;-0.068;2023-02-20T01:37:04;100771.81;;;4.83;92.47
69842;BME280;57138;51.326;-0.068;2023-02-20T01:39:33;100756.47;;;4.77;93.84
69842;BME280;57138;51.326;-0.068;2023-02-20T01:42:04;100755.50;;;4.78;93.94
69842;BME280;57138;51.326;-0.068;2023-02-20T01:44:33;100753.94;;;4.75;94.27
69842;BME280;57138;51.326;-0.068;2023-02-20T01:47:01;100756.19;;;4.80;94.26
69842;BME280;57138;51.326;-0.068;2023-02-20T01:49:43;100754.53;;;4.79;94.25
69842;BME280;57138;51.326;-0.068;2023-02-20T01:52:18;100750.34;;;4.76;94.05
69842;BME280;57138;51.326;-0.068;2023-02-20T01:54:48;100741.41;;;4.67;94.32
69842;BME280;57138;51.326;-0.068;2023-02-20T01:57:19;100745.31;;;4.63;94.26
69842;BME280;57138;51.326;-0.068;2023-02-20T01:59:46;100739.72;;;4.66;93.57
69842;BME280;57138;51.326;-0.068;2023-02-20T02:02:13;100752.00;;;4.67;93.55
69842;BME280;57138;51.326;-0.068;2023-02-20T02:04:40;100747.25;;;4.61;94.04
69842;BME280;57138;51.326;-0.068;2023-02-20T02:07:11;100760.22;;;4.64;94.29
69842;BME280;57138;51.326;-0.068;2023-02-20T02:10:07;100754.94;;;4.64;94.53
69842;BME280;57138;51.326;-0.068;2023-02-20T02:12:34;100757.59;;;4.64;94.37
69842;BME280;57138;51.326;-0.068;2023-02-20T02:15:00;100744.34;;;4.64;94.52
69842;BME280;57138;51.326;-0.068;2023-02-20T02:37:22;100735.44;;;4.85;94.99
69842;BME280;57138;51.326;-0.068;2023-02-20T02:45:34;100722.75;;;4.89;94.81
69842;BME280;57138;51.326;-0.068;2023-02-20T02:48:13;100713.97;;;4.88;94.51
69842;BME280;57138;51.326;-0.068;2023-02-20T02:50:44;100709.06;;;4.93;94.92
69842;BME280;57138;51.326;-0.068;2023-02-20T02:53:12;100719.13;;;4.99;94.56
69842;BME280;57138;51.326;-0.068;2023-02-20T02:55:38;100706.41;;;4.93;94.91
69842;BME280;57138;51.326;-0.068;2023-02-20T02:58:04;100711.44;;;4.96;94.79
69842;BME280;57138;51.326;-0.068;2023-02-20T03:00:38;100710.75;;;4.94;95.31
69842;BME280;57138;51.326;-0.068;2023-02-20T03:03:24;100703.22;;;4.90;95.39
69842;BME280;57138;51.326;-0.068;2023-02-20T03:06:05;100714.38;;;4.93;95.72
69842;BME280;57138;51.326;-0.068;2023-02-20T03:08:38;100710.31;;;4.89;95.85
69842;BME280;57138;51.326;-0.068;2023-02-20T03:11:16;100707.25;;;4.84;95.65
69842;BME280;57138;51.326;-0.068;2023-02-20T03:13:45;100702.91;;;4.83;95.31
69842;BME280;57138;51.326;-0.068;2023-02-20T03:16:43;100701.53;;;4.89;95.30
69842;BME280;57138;51.326;-0.068;2023-02-20T03:19:11;100692.59;;;4.80;95.77
69842;BME280;57138;51.326;-0.068;2023-02-20T03:21:41;100707.66;;;4.89;95.31
69842;BME280;57138;51.326;-0.068;2023-02-20T03:24:10;100705.72;;;4.91;95.33
69842;BME280;57138;51.326;-0.068;2023-02-20T03:26:38;100708.78;;;4.96;95.60
69842;BME280;57138;51.326;-0.068;2023-02-20T03:31:49;100713.81;;;4.99;95.86
69842;BME280;57138;51.326;-0.068;2023-02-20T03:34:37;100708.78;;;4.96;95.71
69842;BME280;57138;51.326;-0.068;2023-02-20T03:37:24;100712.13;;;4.98;95.22
69842;BME280;57138;51.326;-0.068;2023-02-20T03:40:12;100700.16;;;4.94;95.81
69842;BME280;57138;51.326;-0.068;2023-02-20T03:43:03;100714.09;;;4.96;95.94
69842;BME280;57138;51.326;-0.068;2023-02-20T03:45:50;100703.78;;;4.93;95.31
69842;BME280;57138;51.326;-0.068;2023-02-20T03:50:53;100692.75;;;4.88;96.04
69842;BME280;57138;51.326;-0.068;2023-02-20T03:53:19;100714.09;;;4.96;96.28
69842;BME280;57138;51.326;-0.068;2023-02-20T03:55:50;100698.47;;;4.93;95.52
69842;BME280;57138;51.326;-0.068;2023-02-20T03:58:21;100704.59;;;4.94;95.49
69842;BME280;57138;51.326;-0.068;2023-02-20T04:00:49;100693.72;;;4.87;95.44
69842;BME280;57138;51.326;-0.068;2023-02-20T04:03:22;100712.13;;;4.98;95.49
69842;BME280;57138;51.326;-0.068;2023-02-20T04:05:52;100693.44;;;4.90;95.44
69842;BME280;57138;51.326;-0.068;2023-02-20T04:08:26;100715.78;;;4.97;95.71
69842;BME280;57138;51.326;-0.068;2023-02-20T04:11:05;100694.28;;;4.91;95.84
69842;BME280;57138;51.326;-0.068;2023-02-20T04:13:36;100691.34;;;4.84;95.70
69842;BME280;57138;51.326;-0.068;2023-02-20T04:16:03;100703.78;;;4.93;95.88
69842;BME280;57138;51.326;-0.068;2023-02-20T04:18:29;100705.44;;;4.94;95.17
69842;BME280;57138;51.326;-0.068;2023-02-20T04:20:58;100712.13;;;4.98;95.23
69842;BME280;57138;51.326;-0.068;2023-02-20T04:23:25;100711.16;;;4.99;95.44
69842;BME280;57138;51.326;-0.068;2023-02-20T04:25:52;100717.28;;;5.00;95.71
69842;BME280;57138;51.326;-0.068;2023-02-20T04:28:20;100720.78;;;5.00;95.16
69842;BME280;57138;51.326;-0.068;2023-02-20T04:30:47;100718.97;;;5.01;95.64
69842;BME280;57138;51.326;-0.068;2023-02-20T04:33:14;100712.72;;;5.02;95.45
69842;BME280;57138;51.326;-0.068;2023-02-20T04:35:39;100707.09;;;4.95;95.21
69842;BME280;57138;51.326;-0.068;2023-02-20T04:38:06;100710.19;;;5.00;95.10
69842;BME280;57138;51.326;-0.068;2023-02-20T04:40:32;100705.44;;;5.04;95.40
69842;BME280;57138;51.326;-0.068;2023-02-20T04:43:04;100710.47;;;5.07;95.40
69842;BME280;57138;51.326;-0.068;2023-02-20T04:45:32;100708.78;;;5.06;95.11
69842;BME280;57138;51.326;-0.068;2023-02-20T04:47:58;100711.56;;;5.04;95.81
69842;BME280;57138;51.326;-0.068;2023-02-20T04:50:28;100714.22;;;5.04;95.80
69842;BME280;57138;51.326;-0.068;2023-02-20T04:52:55;100709.34;;;5.10;95.59
69842;BME280;57138;51.326;-0.068;2023-02-20T04:55:21;100701.09;;;5.03;95.77
69842;BME280;57138;51.326;-0.068;2023-02-20T04:57:51;100712.28;;;5.07;95.10
69842;BME280;57138;51.326;-0.068;2023-02-20T05:00:19;100714.66;;;5.10;95.30
69842;BME280;57138;51.326;-0.068;2023-02-20T05:02:46;100709.63;;;5.07;95.61
69842;BME280;57138;51.326;-0.068;2023-02-20T05:05:23;100716.03;;;5.14;95.27
69842;BME280;57138;51.326;-0.068;2023-02-20T05:08:02;100698.91;;;5.08;95.34
69842;BME280;57138;51.326;-0.068;2023-02-20T05:10:33;100720.22;;;5.16;95.58
69842;BME280;57138;51.326;-0.068;2023-02-20T05:12:59;100714.91;;;5.16;95.46
69842;BME280;57138;51.326;-0.068;2023-02-20T05:15:26;100725.09;;;5.21;95.01
69842;BME280;57138;51.326;-0.068;2023-02-20T05:17:52;100715.19;;;5.23;95.04
69842;BME280;57138;51.326;-0.068;2023-02-20T05:20:18;100717.84;;;5.23;95.16
69842;BME280;57138;51.326;-0.068;2023-02-20T05:22:44;100710.72;;;5.14;95.14
69842;BME280;57138;51.326;-0.068;2023-02-20T05:25:10;100726.66;;;5.24;95.18
69842;BME280;57138;51.326;-0.068;2023-02-20T05:27:36;100720.22;;;5.26;95.84
69842;BME280;57138;51.326;-0.068;2023-02-20T05:30:02;100724.00;;;5.24;95.54
69842;BME280;57138;51.326;-0.068;2023-02-20T05:32:29;100718.56;;;5.25;95.66
69842;BME280;57138;51.326;-0.068;2023-02-20T05:34:55;100714.91;;;5.26;95.25
69842;BME280;57138;51.326;-0.068;2023-02-20T05:37:22;100734.72;;;5.32;95.26
69842;BME280;57138;51.326;-0.068;2023-02-20T05:39:47;100711.03;;;5.20;95.84
69842;BME280;57138;51.326;-0.068;2023-02-20T05:42:14;100729.97;;;5.35;96.17
69842;BME280;57138;51.326;-0.068;2023-02-20T05:44:39;100721.59;;;5.30;96.30
69842;BME280;57138;51.326;-0.068;2023-02-20T05:47:05;100721.03;;;5.36;96.27
69842;BME280;57138;51.326;-0.068;2023-02-20T05:49:32;100721.72;;;5.38;96.25
69842;BME280;57138;51.326;-0.068;2023-02-20T05:52:00;100714.34;;;5.32;95.98
69842;BME280;57138;51.326;-0.068;2023-02-20T05:54:26;100723.25;;;5.41;96.50
69842;BME280;57138;51.326;-0.068;2023-02-20T05:56:52;100724.09;;;5.42;96.25
69842;BME280;57138;51.326;-0.068;2023-02-20T05:59:22;100704.00;;;5.29;96.64
69842;BME280;57138;51.326;-0.068;2023-02-20T06:01:48;100706.09;;;5.35;96.74
69842;BME280;57138;51.326;-0.068;2023-02-20T06:04:19;100707.06;;;5.44;96.96
69842;BME280;57138;51.326;-0.068;2023-02-20T06:06:44;100717.69;;;5.44;96.89
69842;BME280;57138;51.326;-0.068;2023-02-20T06:09:11;100703.31;;;5.37;97.41
69842;BME280;57138;51.326;-0.068;2023-02-20T06:11:37;100717.81;;;5.43;97.23
69842;BME280;57138;51.326;-0.068;2023-02-20T06:14:04;100719.47;;;5.44;96.57
69842;BME280;57138;51.326;-0.068;2023-02-20T06:16:33;100681.69;;;5.32;97.24
69842;BME280;57138;51.326;-0.068;2023-02-20T06:18:59;100693.66;;;5.46;97.48
69842;BME280;57138;51.326;-0.068;2023-02-20T06:21:25;100698.25;;;5.44;97.26
69842;BME280;57138;51.326;-0.068;2023-02-20T06:23:52;100707.06;;;5.44;97.07
69842;BME280;57138;51.326;-0.068;2023-02-20T06:26:19;100704.28;;;5.46;97.47
69842;BME280;57138;51.326;-0.068;2023-02-20T06:28:47;100703.00;;;5.50;97.47
69842;BME280;57138;51.326;-0.068;2023-02-20T06:31:20;100697.97;;;5.47;97.42
69842;BME280;57138;51.326;-0.068;2023-02-20T06:33:50;100694.19;;;5.49;97.53
69842;BME280;57138;51.326;-0.068;2023-02-20T06:36:29;100706.34;;;5.52;97.62
69842;BME280;57138;51.326;-0.068;2023-02-20T06:38:55;100700.19;;;5.51;98.05
69842;BME280;57138;51.326;-0.068;2023-02-20T06:41:20;100680.69;;;5.43;97.74
69842;BME280;57138;51.326;-0.068;2023-02-20T06:43:46;100675.53;;;5.41;97.49
69842;BME280;57138;51.326;-0.068;2023-02-20T06:46:14;100693.63;;;5.55;97.75
69842;BME280;57138;51.326;-0.068;2023-02-20T06:48:48;100699.75;;;5.56;97.72
69842;BME280;57138;51.326;-0.068;2023-02-20T06:51:19;100693.09;;;5.52;97.37
69842;BME280;57138;51.326;-0.068;2023-02-20T06:53:46;100706.75;;;5.57;97.87
69842;BME280;57138;51.326;-0.068;2023-02-20T06:56:17;100703.41;;;5.55;98.19
69842;BME280;57138;51.326;-0.068;2023-02-20T06:58:46;100708.44;;;5.58;98.06
69842;BME280;57138;51.326;-0.068;2023-02-20T07:01:13;100702.13;;;5.59;98.15
69842;BME280;57138;51.326;-0.068;2023-02-20T07:03:39;100710.09;;;5.59;97.48
69842;BME280;57138;51.326;-0.068;2023-02-20T07:06:05;100703.81;;;5.60;97.95
69842;BME280;57138;51.326;-0.068;2023-02-20T07:08:30;100701.84;;;5.62;98.11
69842;BME280;57138;51.326;-0.068;2023-02-20T07:10:56;100710.66;;;5.63;98.19
69842;BME280;57138;51.326;-0.068;2023-02-20T07:13:21;100706.19;;;5.63;97.83
69842;BME280;57138;51.326;-0.068;2023-02-20T07:15:48;100707.16;;;5.62;98.18
69842;BME280;57138;51.326;-0.068;2023-02-20T07:18:13;100718.19;;;5.67;97.93
69842;BME280;57138;51.326;-0.068;2023-02-20T07:20:39;100708.25;;;5.69;98.12
69842;BME280;57138;51.326;-0.068;2023-02-20T07:23:05;100716.22;;;5.69;98.27
69842;BME280;57138;51.326;-0.068;2023-02-20T07:25:31;100727.50;;;5.71;98.05
69842;BME280;57138;51.326;-0.068;2023-02-20T07:27:56;100714.25;;;5.71;98.64
69842;BME280;57138;51.326;-0.068;2023-02-20T07:30:22;100702.94;;;5.69;98.40
69842;BME280;57138;51.326;-0.068;2023-02-20T07:32:49;100707.00;;;5.73;98.64
69842;BME280;57138;51.326;-0.068;2023-02-20T07:35:15;100702.38;;;5.75;98.87
69842;BME280;57138;51.326;-0.068;2023-02-20T07:37:40;100697.75;;;5.78;98.91
69842;BME280;57138;51.326;-0.068;2023-02-20T07:40:07;100677.94;;;5.72;98.97
69842;BME280;57138;51.326;-0.068;2023-02-20T07:42:33;100692.53;;;5.86;98.75
69842;BME280;57138;51.326;-0.068;2023-02-20T07:44:58;100681.25;;;5.84;98.86
69842;BME280;57138;51.326;-0.068;2023-02-20T07:47:25;100680.94;;;5.87;98.93
69842;BME280;57138;51.326;-0.068;2023-02-20T07:49:51;100681.78;;;5.87;99.17
69842;BME280;57138;51.326;-0.068;2023-02-20T07:52:16;100679.53;;;5.92;98.86
69842;BME280;57138;51.326;-0.068;2023-02-20T07:54:42;100683.84;;;5.93;99.27
69842;BME280;57138;51.326;-0.068;2023-02-20T07:57:08;100681.50;;;6.00;99.27
69842;BME280;57138;51.326;-0.068;2023-02-20T07:59:33;100691.97;;;6.02;98.83
69842;BME280;57138;51.326;-0.068;2023-02-20T08:01:59;100695.38;;;6.12;99.58
69842;BME280;57138;51.326;-0.068;2023-02-20T08:04:25;100681.97;;;6.14;99.17
69842;BME280;57138;51.326;-0.068;2023-02-20T08:06:53;100697.31;;;6.20;99.12
69842;BME280;57138;51.326;-0.068;2023-02-20T08:09:19;100695.88;;;6.25;98.71
69842;BME280;57138;51.326;-0.068;2023-02-20T08:11:44;100692.25;;;6.26;98.61
69842;BME280;57138;51.326;-0.068;2023-02-20T08:14:12;100689.81;;;6.33;98.93
69842;BME280;57138;51.326;-0.068;2023-02-20T08:16:39;100695.66;;;6.37;98.40
69842;BME280;57138;51.326;-0.068;2023-02-20T08:19:05;100674.03;;;6.32;98.60
69842;BME280;57138;51.326;-0.068;2023-02-20T08:21:30;100700.22;;;6.44;98.00
69842;BME280;57138;51.326;-0.068;2023-02-20T08:23:56;100695.22;;;6.41;98.33
69842;BME280;57138;51.326;-0.068;2023-02-20T08:26:22;100698.84;;;6.40;98.23
69842;BME280;57138;51.326;-0.068;2023-02-20T08:28:48;100712.25;;;6.48;97.65
69842;BME280;57138;51.326;-0.068;2023-02-20T08:31:14;100718.91;;;6.53;97.80
69842;BME280;57138;51.326;-0.068;2023-02-20T08:33:40;100694.63;;;6.47;97.41
69842;BME280;57138;51.326;-0.068;2023-02-20T08:36:06;100696.59;;;6.45;98.01
69842;BME280;57138;51.326;-0.068;2023-02-20T08:38:37;100711.34;;;6.58;97.58
69842;BME280;57138;51.326;-0.068;2023-02-20T08:41:09;100705.16;;;6.57;98.06
69842;BME280;57138;51.326;-0.068;2023-02-20T08:43:39;100733.34;;;6.68;97.62
69842;BME280;57138;51.326;-0.068;2023-02-20T08:46:09;100734.44;;;6.75;97.95
69842;BME280;57138;51.326;-0.068;2023-02-20T08:48:39;100721.13;;;6.75;97.20
69842;BME280;57138;51.326;-0.068;2023-02-20T08:51:11;100721.59;;;6.71;97.63
69842;BME280;57138;51.326;-0.068;2023-02-20T08:53:39;100746.00;;;6.84;98.07
69842;BME280;57138;51.326;-0.068;2023-02-20T08:56:08;100726.00;;;6.80;97.32
69842;BME280;57138;51.326;-0.068;2023-02-20T08:58:37;100747.19;;;6.90;97.40
69842;BME280;57138;51.326;-0.068;2023-02-20T09:01:04;100737.38;;;6.90;97.52
69842;BME280;57138;51.326;-0.068;2023-02-20T09:03:30;100744.91;;;6.95;97.08
69842;BME280;57138;51.326;-0.068;2023-02-20T09:05:56;100716.56;;;6.86;96.76
69842;BME280;57138;51.326;-0.068;2023-02-20T09:08:21;100717.28;;;6.88;96.69
69842;BME280;57138;51.326;-0.068;2023-02-20T09:10:47;100725.63;;;6.93;97.08
69842;BME280;57138;51.326;-0.068;2023-02-20T09:13:21;100714.97;;;6.93;96.53
69842;BME280;57138;51.326;-0.068;2023-02-20T09:15:49;100725.00;;;6.99;96.91
69842;BME280;57138;51.326;-0.068;2023-02-20T09:18:18;100720.66;;;6.98;96.28
69842;BME280;57138;51.326;-0.068;2023-02-20T09:20:46;100727.56;;;7.09;96.96
69842;BME280;57138;51.326;-0.068;2023-02-20T09:23:15;100730.47;;;7.15;96.18
69842;BME280;57138;51.326;-0.068;2023-02-20T09:25:48;100708.13;;;7.08;96.86
69842;BME280;57138;51.326;-0.068;2023-02-20T09:28:17;100734.19;;;7.23;96.32
69842;BME280;57138;51.326;-0.068;2023-02-20T09:30:46;100725.06;;;7.25;96.38
69842;BME280;57138;51.326;-0.068;2023-02-20T09:33:26;100708.34;;;7.15;96.48
69842;BME280;57138;51.326;-0.068;2023-02-20T09:35:57;100727.25;;;7.30;96.59
69842;BME280;57138;51.326;-0.068;2023-02-20T09:38:28;100724.44;;;7.31;96.21
69842;BME280;57138;51.326;-0.068;2023-02-20T09:40:59;100727.16;;;7.40;96.57
69842;BME280;57138;51.326;-0.068;2023-02-20T09:43:35;100725.00;;;7.43;95.99
69842;BME280;57138;51.326;-0.068;2023-02-20T09:46:12;100723.72;;;7.47;96.25
69842;BME280;57138;51.326;-0.068;2023-02-20T09:51:40;100698.56;;;7.42;95.15
69842;BME280;57138;51.326;-0.068;2023-02-20T09:56:41;100684.47;;;7.49;95.57
69842;BME280;57138;51.326;-0.068;2023-02-20T10:01:42;100714.53;;;7.68;95.45
69842;BME280;57138;51.326;-0.068;2023-02-20T10:04:14;100703.56;;;7.71;94.69
69842;BME280;57138;51.326;-0.068;2023-02-20T10:06:43;100689.59;;;7.69;94.99
69842;BME280;57138;51.326;-0.068;2023-02-20T10:09:12;100681.47;;;7.70;94.59
69842;BME280;57138;51.326;-0.068;2023-02-20T10:14:40;100694.34;;;7.91;94.12
69842;BME280;57138;51.326;-0.068;2023-02-20T10:19:50;100705.06;;;8.00;93.52
69842;BME280;57138;51.326;-0.068;2023-02-20T10:22:27;100691.06;;;7.98;93.71
69842;BME280;57138;51.326;-0.068;2023-02-20T10:30:36;100699.47;;;8.19;93.20
69842;BME280;57138;51.326;-0.068;2023-02-20T10:33:44;100696.16;;;8.25;92.27
69842;BME280;57138;51.326;-0.068;2023-02-20T10:36:19;100700.00;;;8.31;92.05
69842;BME280;57138;51.326;-0.068;2023-02-20T10:38:50;100689.53;;;8.30;92.78
69842;BME280;57138;51.326;-0.068;2023-02-20T10:41:31;100678.38;;;8.34;91.84
69842;BME280;57138;51.326;-0.068;2023-02-20T10:44:47;100685.56;;;8.42;92.30
69842;BME280;57138;51.326;-0.068;2023-02-20T10:49:59;100691.63;;;8.60;91.86
69842;BME280;57138;51.326;-0.068;2023-02-20T10:52:41;100690.28;;;8.64;90.92
69842;BME280;57138;51.326;-0.068;2023-02-20T10:55:43;100687.97;;;8.70;91.33
69842;BME280;57138;51.326;-0.068;2023-02-20T11:00:59;100653.28;;;8.61;90.44
69842;BME280;57138;51.326;-0.068;2023-02-20T11:03:38;100693.81;;;8.81;90.91
69842;BME280;57138;51.326;-0.068;2023-02-20T11:06:12;100686.81;;;8.89;90.56
69842;BME280;57138;51.326;-0.068;2023-02-20T11:08:39;100683.66;;;8.93;89.62
69842;BME280;57138;51.326;-0.068;2023-02-20T11:11:27;100671.63;;;8.97;89.83
69842;BME280;57138;51.326;-0.068;2023-02-20T11:13:53;100661.66;;;8.99;89.84
69842;BME280;57138;51.326;-0.068;2023-02-20T11:16:58;100653.97;;;9.05;89.75
69842;BME280;57138;51.326;-0.068;2023-02-20T11:19:22;100665.81;;;9.18;89.19
69842;BME280;57138;51.326;-0.068;2023-02-20T11:21:49;100670.63;;;9.23;88.88
69842;BME280;57138;51.326;-0.068;2023-02-20T11:24:29;100656.97;;;9.18;88.13
69842;BME280;57138;51.326;-0.068;2023-02-20T11:27:01;100665.97;;;9.25;88.27
69842;BME280;57138;51.326;-0.068;2023-02-20T11:29:48;100656.47;;;9.23;87.78
69842;BME280;57138;51.326;-0.068;2023-02-20T11:32:39;100661.28;;;9.35;88.40
69842;BME280;57138;51.326;-0.068;2023-02-20T11:40:20;100653.59;;;9.41;86.73
69842;BME280;57138;51.326;-0.068;2023-02-20T11:42:48;100639.59;;;9.39;86.88
69842;BME280;57138;51.326;-0.068;2023-02-20T11:45:34;100662.91;;;9.53;86.58
69842;BME280;57138;51.326;-0.068;2023-02-20T11:48:10;100665.88;;;9.58;86.39
69842;BME280;57138;51.326;-0.068;2023-02-20T11:50:40;100643.91;;;9.48;85.88
69842;BME280;57138;51.326;-0.068;2023-02-20T11:53:31;100634.19;;;9.55;85.99
69842;BME280;57138;51.326;-0.068;2023-02-20T11:56:16;100637.19;;;9.60;85.73
69842;BME280;57138;51.326;-0.068;2023-02-20T11:58:45;100633.69;;;9.60;85.50
69842;BME280;57138;51.326;-0.068;2023-02-20T12:01:32;100642.66;;;9.75;85.54
69842;BME280;57138;51.326;-0.068;2023-02-20T12:04:18;100645.81;;;9.79;84.79
69842;BME280;57138;51.326;-0.068;2023-02-20T12:06:46;100626.63;;;9.75;84.57
69842;BME280;57138;51.326;-0.068;2023-02-20T12:09:18;100623.94;;;9.75;84.55
69842;BME280;57138;51.326;-0.068;2023-02-20T12:11:53;100612.75;;;9.80;84.46
69842;BME280;57138;51.326;-0.068;2023-02-20T12:14:19;100620.06;;;9.86;84.62
69842;BME280;57138;51.326;-0.068;2023-02-20T12:20:31;100620.94;;;10.10;83.97
69842;BME280;57138;51.326;-0.068;2023-02-20T12:23:03;100606.59;;;10.11;84.27
69842;BME280;57138;51.326;-0.068;2023-02-20T12:25:36;100592.69;;;10.15;83.57
69842;BME280;57138;51.326;-0.068;2023-02-20T12:28:19;100602.16;;;10.26;83.30
69842;BME280;57138;51.326;-0.068;2023-02-20T12:34:14;100607.78;;;10.39;82.19
69842;BME280;57138;51.326;-0.068;2023-02-20T12:37:02;100594.28;;;10.33;82.63
69842;BME280;57138;51.326;-0.068;2023-02-20T12:45:29;100581.06;;;10.39;82.76
69842;BME280;57138;51.326;-0.068;2023-02-20T12:47:56;100583.03;;;10.46;82.38
69842;BME280;57138;51.326;-0.068;2023-02-20T12:50:39;100583.94;;;10.53;82.29
69842;BME280;57138;51.326;-0.068;2023-02-20T12:53:32;100576.56;;;10.55;81.93
69842;BME280;57138;51.326;-0.068;2023-02-20T12:58:54;100574.50;;;10.65;81.84
69842;BME280;57138;51.326;-0.068;2023-02-20T13:01:26;100567.41;;;10.72;81.93
69842;BME280;57138;51.326;-0.068;2023-02-20T13:06:50;100568.84;;;10.83;80.83
69842;BME280;57138;51.326;-0.068;2023-02-20T13:09:35;100558.19;;;10.75;79.27
69842;BME280;57138;51.326;-0.068;2023-02-20T13:12:15;100556.59;;;10.66;79.94
69842;BME280;57138;51.326;-0.068;2023-02-20T13:14:58;100569.41;;;10.70;80.54
69842;BME280;57138;51.326;-0.068;2023-02-20T13:17:45;100565.28;;;10.68;80.11
69842;BME280;57138;51.326;-0.068;2023-02-20T13:20:17;100571.09;;;10.71;80.87
69842;BME280;57138;51.326;-0.068;2023-02-20T13:22:59;100540.44;;;10.59;80.44
69842;BME280;57138;51.326;-0.068;2023-02-20T13:25:40;100560.03;;;10.74;80.42
69842;BME280;57138;51.326;-0.068;2023-02-20T13:28:23;100545.66;;;10.75;79.69
69842;BME280;57138;51.326;-0.068;2023-02-20T13:31:23;100538.91;;;10.65;79.83
69842;BME280;57138;51.326;-0.068;2023-02-20T13:47:02;100530.06;;;10.79;80.45
69842;BME280;57138;51.326;-0.068;2023-02-20T13:52:29;100536.72;;;10.83;80.20
69842;BME280;57138;51.326;-0.068;2023-02-20T13:55:15;100525.19;;;10.83;79.97
69842;BME280;57138;51.326;-0.068;2023-02-20T13:57:52;100519.19;;;10.81;80.12
69842;BME280;57138;51.326;-0.068;2023-02-20T14:02:44;100506.63;;;10.81;80.37
69842;BME280;57138;51.326;-0.068;2023-02-20T14:05:30;100504.28;;;10.86;79.93
69842;BME280;57138;51.326;-0.068;2023-02-20T14:07:57;100497.06;;;10.87;79.93
69842;BME280;57138;51.326;-0.068;2023-02-20T14:10:27;100491.06;;;10.85;79.98
69842;BME280;57138;51.326;-0.068;2023-02-20T14:12:57;100501.41;;;10.88;79.45
69842;BME280;57138;51.326;-0.068;2023-02-20T14:15:24;100471.97;;;10.73;80.02
69842;BME280;57138;51.326;-0.068;2023-02-20T14:17:51;100481.47;;;10.75;79.85
69842;BME280;57138;51.326;-0.068;2023-02-20T14:20:31;100487.38;;;10.86;80.04
69842;BME280;57138;51.326;-0.068;2023-02-20T14:23:20;100492.34;;;10.89;79.44
69842;BME280;57138;51.326;-0.068;2023-02-20T14:25:55;100477.97;;;10.90;79.36
69842;BME280;57138;51.326;-0.068;2023-02-20T14:28:21;100468.56;;;10.79;79.79
69842;BME280;57138;51.326;-0.068;2023-02-20T14:31:06;100482.13;;;10.92;79.75
69842;BME280;57138;51.326;-0.068;2023-02-20T14:33:32;100477.16;;;10.89;80.08
69842;BME280;57138;51.326;-0.068;2023-02-20T14:38:52;100481.56;;;10.97;79.42
69842;BME280;57138;51.326;-0.068;2023-02-20T14:41:23;100473.56;;;10.97;79.07
69842;BME280;57138;51.326;-0.068;2023-02-20T14:43:57;100477.22;;;10.96;79.35
69842;BME280;57138;51.326;-0.068;2023-02-20T14:46:26;100474.19;;;10.99;79.42
69842;BME280;57138;51.326;-0.068;2023-02-20T14:49:08;100473.25;;;11.07;79.34